sensor_id;sensor_type;location;lat;lon;timestamp;pressure;altitude;pressure_sealevel;temperature;humidity
6668;BME280;3370;47.712;9.082;2023-03-15T00:01:50;96591.06;;;2.38;100.00
6668;BME280;3370;47.712;9.082;2023-03-15T00:04:36;96596.31;;;2.29;100.00
6668;BME280;3370;47.712;9.082;2023-03-15T00:07:22;96585.25;;;2.32;100.00
6668;BME280;3370;47.712;9.082;2023-03-15T00:10:10;96595.25;;;2.39;100.00
6668;BME280;3370;47.712;9.082;2023-03-15T00:12:56;96599.47;;;2.40;100.00
6668;BME280;3370;47.712;9.082;2023-03-15T00:15:51;96604.59;;;2.37;100.00
6668;BME280;3370;47.712;9.082;2023-03-15T00:18:38;96619.97;;;2.29;100.00
6668;BME280;3370;47.712;9.082;2023-03-15T00:21:24;96626.72;;;2.32;100.00
6668;BME280;3370;47.712;9.082;2023-03-15T00:24:11;96625.06;;;2.28;100.00
6668;BME280;3370;47.712;9.082;2023-03-15T00:26:57;96624.38;;;2.21;100.00
6668;BME280;3370;47.712;9.082;2023-03-15T00:29:43;96630.88;;;2.35;100.00
6668;BME280;3370;47.712;9.082;2023-03-15T00:32:29;96633.97;;;2.49;100.00
6668;BME280;3370;47.712;9.082;2023-03-15T00:35:16;96634.22;;;2.37;100.00
6668;BME280;3370;47.712;9.082;2023-03-15T00:38:03;96644.28;;;2.41;100.00
6668;BME280;3370;47.712;9.082;2023-03-15T00:40:49;96651.38;;;2.24;100.00
6668;BME280;3370;47.712;9.082;2023-03-15T00:43:35;96646.38;;;2.19;100.00
6668;BME280;3370;47.712;9.082;2023-03-15T00:46:21;96646.31;;;2.22;100.00
6668;BME280;3370;47.712;9.082;2023-03-15T00:49:07;96656.50;;;2.21;100.00
6668;BME280;3370;47.712;9.082;2023-03-15T00:51:54;96657.38;;;2.20;100.00
6668;BME280;3370;47.712;9.082;2023-03-15T00:54:40;96665.84;;;2.19;100.00
6668;BME280;3370;47.712;9.082;2023-03-15T00:57:26;96681.16;;;2.13;100.00
6668;BME280;3370;47.712;9.082;2023-03-15T01:00:18;96687.75;;;2.23;100.00
6668;BME280;3370;47.712;9.082;2023-03-15T01:03:09;96702.81;;;2.32;100.00
6668;BME280;3370;47.712;9.082;2023-03-15T01:05:55;96708.91;;;2.22;100.00
6668;BME280;3370;47.712;9.082;2023-03-15T01:08:42;96723.31;;;2.20;100.00
6668;BME280;3370;47.712;9.082;2023-03-15T01:11:29;96726.72;;;2.17;99.73
6668;BME280;3370;47.712;9.082;2023-03-15T01:14:15;96736.81;;;2.22;95.92
6668;BME280;3370;47.712;9.082;2023-03-15T01:17:01;96729.19;;;2.23;96.43
6668;BME280;3370;47.712;9.082;2023-03-15T01:19:47;96746.13;;;2.21;95.00
6668;BME280;3370;47.712;9.082;2023-03-15T01:22:33;96757.97;;;2.21;92.55
6668;BME280;3370;47.712;9.082;2023-03-15T01:25:19;96761.31;;;2.23;93.29
6668;BME280;3370;47.712;9.082;2023-03-15T01:28:06;96773.91;;;2.29;91.96
6668;BME280;3370;47.712;9.082;2023-03-15T01:30:52;96773.09;;;2.28;90.42
6668;BME280;3370;47.712;9.082;2023-03-15T01:33:38;96779.78;;;2.31;89.86
6668;BME280;3370;47.712;9.082;2023-03-15T01:36:24;96784.94;;;2.26;90.35
6668;BME280;3370;47.712;9.082;2023-03-15T01:39:10;96799.16;;;2.35;90.85
6668;BME280;3370;47.712;9.082;2023-03-15T01:41:56;96807.75;;;2.28;89.93
6668;BME280;3370;47.712;9.082;2023-03-15T01:44:56;96821.03;;;2.42;90.20
6668;BME280;3370;47.712;9.082;2023-03-15T01:47:44;96837.03;;;2.47;94.14
6668;BME280;3370;47.712;9.082;2023-03-15T01:50:30;96844.75;;;2.41;94.81
6668;BME280;3370;47.712;9.082;2023-03-15T01:53:16;96847.69;;;2.15;96.31
6668;BME280;3370;47.712;9.082;2023-03-15T01:56:04;96859.97;;;1.85;96.51
6668;BME280;3370;47.712;9.082;2023-03-15T01:58:52;96870.09;;;1.87;95.49
6668;BME280;3370;47.712;9.082;2023-03-15T02:01:39;96877.75;;;1.81;96.30
6668;BME280;3370;47.712;9.082;2023-03-15T02:04:35;96871.91;;;1.76;95.67
6668;BME280;3370;47.712;9.082;2023-03-15T02:07:25;96875.34;;;1.70;94.36
6668;BME280;3370;47.712;9.082;2023-03-15T02:10:16;96882.22;;;1.62;94.33
6668;BME280;3370;47.712;9.082;2023-03-15T02:13:04;96881.47;;;1.52;94.85
6668;BME280;3370;47.712;9.082;2023-03-15T02:15:52;96880.66;;;1.53;95.86
6668;BME280;3370;47.712;9.082;2023-03-15T02:18:38;96890.00;;;1.46;96.55
6668;BME280;3370;47.712;9.082;2023-03-15T02:22:31;96894.25;;;1.46;94.20
6668;BME280;3370;47.712;9.082;2023-03-15T02:25:50;96900.91;;;1.53;94.48
6668;BME280;3370;47.712;9.082;2023-03-15T02:28:41;96904.41;;;1.41;93.35
6668;BME280;3370;47.712;9.082;2023-03-15T02:31:27;96907.78;;;1.43;93.82
6668;BME280;3370;47.712;9.082;2023-03-15T02:34:14;96910.50;;;1.26;93.63
6668;BME280;3370;47.712;9.082;2023-03-15T02:37:00;96918.16;;;1.20;92.84
6668;BME280;3370;47.712;9.082;2023-03-15T02:39:47;96915.66;;;1.15;93.52
6668;BME280;3370;47.712;9.082;2023-03-15T02:42:33;96926.59;;;1.21;92.69
6668;BME280;3370;47.712;9.082;2023-03-15T02:45:20;96930.84;;;1.17;93.07
6668;BME280;3370;47.712;9.082;2023-03-15T02:48:07;96941.84;;;1.16;95.61
6668;BME280;3370;47.712;9.082;2023-03-15T02:50:55;96940.03;;;1.27;97.91
6668;BME280;3370;47.712;9.082;2023-03-15T02:53:41;96950.91;;;1.36;99.39
6668;BME280;3370;47.712;9.082;2023-03-15T02:56:27;96947.59;;;1.30;100.00
6668;BME280;3370;47.712;9.082;2023-03-15T02:59:13;96953.53;;;1.29;100.00
6668;BME280;3370;47.712;9.082;2023-03-15T03:01:59;96956.06;;;1.29;100.00
6668;BME280;3370;47.712;9.082;2023-03-15T03:04:46;96958.47;;;1.42;100.00
6668;BME280;3370;47.712;9.082;2023-03-15T03:07:32;96955.88;;;1.48;98.81
6668;BME280;3370;47.712;9.082;2023-03-15T03:10:19;96961.06;;;1.36;100.00
6668;BME280;3370;47.712;9.082;2023-03-15T03:13:05;96961.09;;;1.32;100.00
6668;BME280;3370;47.712;9.082;2023-03-15T03:15:51;96967.84;;;1.30;100.00
6668;BME280;3370;47.712;9.082;2023-03-15T03:18:43;96973.72;;;1.37;100.00
6668;BME280;3370;47.712;9.082;2023-03-15T03:21:29;96974.53;;;1.38;100.00
6668;BME280;3370;47.712;9.082;2023-03-15T03:24:15;96976.31;;;1.32;100.00
6668;BME280;3370;47.712;9.082;2023-03-15T03:27:01;96981.47;;;1.22;100.00
6668;BME280;3370;47.712;9.082;2023-03-15T03:29:48;96995.00;;;1.19;100.00
6668;BME280;3370;47.712;9.082;2023-03-15T03:32:35;96991.63;;;1.17;100.00
6668;BME280;3370;47.712;9.082;2023-03-15T03:35:21;96993.28;;;1.21;100.00
6668;BME280;3370;47.712;9.082;2023-03-15T03:38:08;96998.41;;;1.15;100.00
6668;BME280;3370;47.712;9.082;2023-03-15T03:40:55;97005.16;;;1.16;100.00
6668;BME280;3370;47.712;9.082;2023-03-15T03:43:42;97004.31;;;1.14;100.00
6668;BME280;3370;47.712;9.082;2023-03-15T03:46:28;97006.91;;;1.11;100.00
6668;BME280;3370;47.712;9.082;2023-03-15T03:49:14;97012.81;;;1.08;100.00
6668;BME280;3370;47.712;9.082;2023-03-15T03:52:00;97010.34;;;1.01;100.00
6668;BME280;3370;47.712;9.082;2023-03-15T03:54:47;97014.59;;;0.95;100.00
6668;BME280;3370;47.712;9.082;2023-03-15T03:57:33;97023.91;;;0.90;100.00
6668;BME280;3370;47.712;9.082;2023-03-15T04:00:19;97023.91;;;0.90;100.00
6668;BME280;3370;47.712;9.082;2023-03-15T04:03:07;97027.28;;;0.92;100.00
6668;BME280;3370;47.712;9.082;2023-03-15T04:05:54;97036.63;;;0.84;100.00
6668;BME280;3370;47.712;9.082;2023-03-15T04:08:41;97033.28;;;0.79;100.00
6668;BME280;3370;47.712;9.082;2023-03-15T04:11:28;97045.03;;;0.88;100.00
6668;BME280;3370;47.712;9.082;2023-03-15T04:14:14;97050.09;;;0.89;100.00
6668;BME280;3370;47.712;9.082;2023-03-15T04:17:00;97059.41;;;0.86;100.00
6668;BME280;3370;47.712;9.082;2023-03-15T04:19:48;97058.56;;;0.84;100.00
6668;BME280;3370;47.712;9.082;2023-03-15T04:22:34;97054.34;;;0.81;100.00
6668;BME280;3370;47.712;9.082;2023-03-15T04:25:21;97056.13;;;0.68;100.00
6668;BME280;3370;47.712;9.082;2023-03-15T04:28:11;97063.78;;;0.57;100.00
6668;BME280;3370;47.712;9.082;2023-03-15T04:30:57;97058.66;;;0.65;100.00
6668;BME280;3370;47.712;9.082;2023-03-15T04:33:43;97067.91;;;0.74;100.00
6668;BME280;3370;47.712;9.082;2023-03-15T04:36:30;97064.53;;;0.76;100.00
6668;BME280;3370;47.712;9.082;2023-03-15T04:39:16;97072.13;;;0.75;100.00
6668;BME280;3370;47.712;9.082;2023-03-15T04:42:02;97069.59;;;0.75;100.00
6668;BME280;3370;47.712;9.082;2023-03-15T04:44:48;97079.72;;;0.73;100.00
6668;BME280;3370;47.712;9.082;2023-03-15T04:47:34;97088.19;;;0.71;100.00
6668;BME280;3370;47.712;9.082;2023-03-15T04:50:21;97094.13;;;0.64;100.00
6668;BME280;3370;47.712;9.082;2023-03-15T04:53:07;97096.66;;;0.64;100.00
6668;BME280;3370;47.712;9.082;2023-03-15T04:55:53;97096.59;;;0.71;100.00
6668;BME280;3370;47.712;9.082;2023-03-15T04:58:39;97096.53;;;0.85;100.00
6668;BME280;3370;47.712;9.082;2023-03-15T05:01:30;97105.03;;;0.75;100.00
6668;BME280;3370;47.712;9.082;2023-03-15T05:04:16;97102.50;;;0.78;99.46
6668;BME280;3370;47.712;9.082;2023-03-15T05:07:02;97101.72;;;0.59;99.64
6668;BME280;3370;47.712;9.082;2023-03-15T05:09:48;97110.19;;;0.56;99.88
6668;BME280;3370;47.712;9.082;2023-03-15T05:12:35;97111.03;;;0.55;100.00
6668;BME280;3370;47.712;9.082;2023-03-15T05:15:21;97105.97;;;0.54;100.00
6668;BME280;3370;47.712;9.082;2023-03-15T05:18:07;97110.19;;;0.50;100.00
6668;BME280;3370;47.712;9.082;2023-03-15T05:20:53;97116.97;;;0.45;100.00
6668;BME280;3370;47.712;9.082;2023-03-15T05:23:41;97122.03;;;0.45;100.00
6668;BME280;3370;47.712;9.082;2023-03-15T05:26:27;97127.06;;;0.47;100.00
6668;BME280;3370;47.712;9.082;2023-03-15T05:29:13;97138.06;;;0.41;100.00
6668;BME280;3370;47.712;9.082;2023-03-15T05:32:00;97146.47;;;0.45;100.00
6668;BME280;3370;47.712;9.082;2023-03-15T05:34:49;97142.31;;;0.27;100.00
6668;BME280;3370;47.712;9.082;2023-03-15T05:37:35;97149.97;;;0.13;100.00
6668;BME280;3370;47.712;9.082;2023-03-15T05:40:21;97152.47;;;0.24;100.00
6668;BME280;3370;47.712;9.082;2023-03-15T05:43:07;97152.41;;;0.42;100.00
6668;BME280;3370;47.712;9.082;2023-03-15T05:45:53;97160.00;;;0.37;100.00
6668;BME280;3370;47.712;9.082;2023-03-15T05:48:39;97158.25;;;0.52;100.00
6668;BME280;3370;47.712;9.082;2023-03-15T05:51:25;97165.06;;;0.44;100.00
6668;BME280;3370;47.712;9.082;2023-03-15T05:54:11;97160.84;;;0.38;100.00
6668;BME280;3370;47.712;9.082;2023-03-15T05:56:57;97167.59;;;0.36;100.00
6668;BME280;3370;47.712;9.082;2023-03-15T05:59:43;97159.16;;;0.34;100.00
6668;BME280;3370;47.712;9.082;2023-03-15T06:02:29;97167.63;;;0.30;100.00
6668;BME280;3370;47.712;9.082;2023-03-15T06:05:15;97172.69;;;0.24;100.00
6668;BME280;3370;47.712;9.082;2023-03-15T06:08:02;97175.19;;;0.34;100.00
6668;BME280;3370;47.712;9.082;2023-03-15T06:10:49;97180.22;;;0.36;100.00
6668;BME280;3370;47.712;9.082;2023-03-15T06:13:35;97169.28;;;0.34;100.00
6668;BME280;3370;47.712;9.082;2023-03-15T06:16:21;97177.72;;;0.27;100.00
6668;BME280;3370;47.712;9.082;2023-03-15T06:19:08;97173.53;;;0.21;100.00
6668;BME280;3370;47.712;9.082;2023-03-15T06:21:54;97188.72;;;0.21;100.00
6668;BME280;3370;47.712;9.082;2023-03-15T06:24:40;97180.25;;;0.28;100.00
6668;BME280;3370;47.712;9.082;2023-03-15T06:27:26;97181.06;;;0.38;100.00
6668;BME280;3370;47.712;9.082;2023-03-15T06:30:12;97186.13;;;0.47;100.00
6668;BME280;3370;47.712;9.082;2023-03-15T06:32:59;97181.84;;;0.66;98.24
6668;BME280;3370;47.712;9.082;2023-03-15T06:35:46;97187.81;;;0.41;100.00
6668;BME280;3370;47.712;9.082;2023-03-15T06:38:32;97181.09;;;0.35;100.00
6668;BME280;3370;47.712;9.082;2023-03-15T06:41:18;97189.50;;;0.43;100.00
6668;BME280;3370;47.712;9.082;2023-03-15T06:44:05;97181.94;;;0.38;100.00
6668;BME280;3370;47.712;9.082;2023-03-15T06:46:51;97184.44;;;0.43;100.00
6668;BME280;3370;47.712;9.082;2023-03-15T06:49:37;97192.03;;;0.49;100.00
6668;BME280;3370;47.712;9.082;2023-03-15T06:52:23;97183.56;;;0.55;100.00
6668;BME280;3370;47.712;9.082;2023-03-15T06:55:09;97192.00;;;0.54;100.00
6668;BME280;3370;47.712;9.082;2023-03-15T06:57:57;97191.97;;;0.68;100.00
6668;BME280;3370;47.712;9.082;2023-03-15T07:00:43;97204.56;;;0.80;100.00
6668;BME280;3370;47.712;9.082;2023-03-15T07:03:29;97202.88;;;0.85;99.94
6668;BME280;3370;47.712;9.082;2023-03-15T07:06:15;97196.09;;;0.87;99.33
6668;BME280;3370;47.712;9.082;2023-03-15T07:09:02;97196.91;;;0.94;98.69
6668;BME280;3370;47.712;9.082;2023-03-15T07:11:48;97201.97;;;1.00;99.53
6668;BME280;3370;47.712;9.082;2023-03-15T07:14:35;97208.72;;;0.98;99.98
6668;BME280;3370;47.712;9.082;2023-03-15T07:17:21;97206.19;;;0.97;100.00
6668;BME280;3370;47.712;9.082;2023-03-15T07:20:07;97215.44;;;1.01;100.00
6668;BME280;3370;47.712;9.082;2023-03-15T07:22:54;97210.34;;;1.07;99.52
6668;BME280;3370;47.712;9.082;2023-03-15T07:25:40;97213.66;;;1.21;97.07
6668;BME280;3370;47.712;9.082;2023-03-15T07:28:26;97218.75;;;1.18;94.80
6668;BME280;3370;47.712;9.082;2023-03-15T07:31:13;97217.06;;;1.19;96.81
6668;BME280;3370;47.712;9.082;2023-03-15T07:33:59;97214.53;;;1.20;96.87
6668;BME280;3370;47.712;9.082;2023-03-15T07:36:45;97222.06;;;1.23;95.96
6668;BME280;3370;47.712;9.082;2023-03-15T07:39:31;97223.72;;;1.33;95.55
6668;BME280;3370;47.712;9.082;2023-03-15T07:42:17;97222.84;;;1.38;96.11
6668;BME280;3370;47.712;9.082;2023-03-15T07:45:05;97224.53;;;1.42;94.08
6668;BME280;3370;47.712;9.082;2023-03-15T07:47:52;97229.56;;;1.49;90.23
6668;BME280;3370;47.712;9.082;2023-03-15T07:50:38;97227.84;;;1.53;85.55
6668;BME280;3370;47.712;9.082;2023-03-15T07:53:25;97224.38;;;1.65;83.25
6668;BME280;3370;47.712;9.082;2023-03-15T07:56:11;97229.34;;;1.79;85.17
6668;BME280;3370;47.712;9.082;2023-03-15T07:58:57;97241.13;;;1.89;83.76
6668;BME280;3370;47.712;9.082;2023-03-15T08:01:43;97235.00;;;2.11;81.07
6668;BME280;3370;47.712;9.082;2023-03-15T08:04:29;97237.47;;;2.21;81.45
6668;BME280;3370;47.712;9.082;2023-03-15T08:07:15;97233.22;;;2.23;84.63
6668;BME280;3370;47.712;9.082;2023-03-15T08:10:03;97239.91;;;2.30;84.87
6668;BME280;3370;47.712;9.082;2023-03-15T08:12:51;97227.19;;;2.36;81.05
6668;BME280;3370;47.712;9.082;2023-03-15T08:15:37;97225.50;;;2.35;79.54
6668;BME280;3370;47.712;9.082;2023-03-15T08:18:23;97232.19;;;2.44;81.26
6668;BME280;3370;47.712;9.082;2023-03-15T08:21:09;97240.53;;;2.55;78.73
6668;BME280;3370;47.712;9.082;2023-03-15T08:23:55;97226.00;;;2.66;78.99
6668;BME280;3370;47.712;9.082;2023-03-15T08:26:41;97223.34;;;2.77;79.45
6668;BME280;3370;47.712;9.082;2023-03-15T08:29:30;97219.84;;;2.91;79.79
6668;BME280;3370;47.712;9.082;2023-03-15T08:32:18;97226.53;;;2.96;72.37
6668;BME280;3370;47.712;9.082;2023-03-15T08:35:05;97222.25;;;3.00;75.28
6668;BME280;3370;47.712;9.082;2023-03-15T08:37:52;97222.84;;;3.20;77.78
6668;BME280;3370;47.712;9.082;2023-03-15T08:40:38;97227.78;;;3.31;70.13
6668;BME280;3370;47.712;9.082;2023-03-15T08:43:25;97230.16;;;3.43;72.13
6668;BME280;3370;47.712;9.082;2023-03-15T08:46:11;97230.94;;;3.50;74.03
6668;BME280;3370;47.712;9.082;2023-03-15T08:48:58;97226.38;;;3.71;69.74
6668;BME280;3370;47.712;9.082;2023-03-15T08:51:44;97233.34;;;3.58;70.67
6668;BME280;3370;47.712;9.082;2023-03-15T08:54:30;97229.03;;;3.64;71.92
6668;BME280;3370;47.712;9.082;2023-03-15T08:57:16;97227.97;;;3.79;67.88
6668;BME280;3370;47.712;9.082;2023-03-15T09:00:04;97227.06;;;3.82;70.22
6668;BME280;3370;47.712;9.082;2023-03-15T09:02:53;97221.97;;;3.82;72.38
6668;BME280;3370;47.712;9.082;2023-03-15T09:05:40;97230.19;;;3.99;72.53
6668;BME280;3370;47.712;9.082;2023-03-15T09:08:26;97220.88;;;3.97;70.46
6668;BME280;3370;47.712;9.082;2023-03-15T09:11:12;97229.69;;;4.30;69.71
6668;BME280;3370;47.712;9.082;2023-03-15T09:13:58;97229.84;;;4.21;68.80
6668;BME280;3370;47.712;9.082;2023-03-15T09:16:44;97227.50;;;4.09;68.61
6668;BME280;3370;47.712;9.082;2023-03-15T09:19:30;97232.59;;;4.09;69.77
6668;BME280;3370;47.712;9.082;2023-03-15T09:22:17;97234.78;;;4.30;68.27
6668;BME280;3370;47.712;9.082;2023-03-15T09:25:04;97243.19;;;4.35;70.48
6668;BME280;3370;47.712;9.082;2023-03-15T09:27:50;97247.72;;;4.16;65.16
6668;BME280;3370;47.712;9.082;2023-03-15T09:30:38;97250.13;;;4.24;66.89
6668;BME280;3370;47.712;9.082;2023-03-15T09:33:25;97242.91;;;4.51;68.83
6668;BME280;3370;47.712;9.082;2023-03-15T09:36:12;97247.59;;;4.72;71.18
6668;BME280;3370;47.712;9.082;2023-03-15T09:38:59;97255.81;;;4.40;69.62
6668;BME280;3370;47.712;9.082;2023-03-15T09:41:51;97249.00;;;4.40;66.56
6668;BME280;3370;47.712;9.082;2023-03-15T09:51:59;97253.03;;;4.54;68.53
6668;BME280;3370;47.712;9.082;2023-03-15T09:55:10;97254.47;;;4.69;67.47
6668;BME280;3370;47.712;9.082;2023-03-15T09:58:04;97250.78;;;4.84;66.09
6668;BME280;3370;47.712;9.082;2023-03-15T10:01:06;97268.25;;;5.02;65.76
6668;BME280;3370;47.712;9.082;2023-03-15T10:03:56;97254.28;;;5.22;66.14
6668;BME280;3370;47.712;9.082;2023-03-15T10:06:48;97259.13;;;4.92;64.51
6668;BME280;3370;47.712;9.082;2023-03-15T10:09:36;97251.66;;;4.83;65.54
6668;BME280;3370;47.712;9.082;2023-03-15T10:12:29;97257.34;;;4.97;66.05
6668;BME280;3370;47.712;9.082;2023-03-15T10:15:40;97247.56;;;4.75;64.55
6668;BME280;3370;47.712;9.082;2023-03-15T10:18:53;97255.41;;;5.08;66.20
6668;BME280;3370;47.712;9.082;2023-03-15T10:25:03;97242.66;;;5.49;64.33
6668;BME280;3370;47.712;9.082;2023-03-15T10:30:49;97236.00;;;5.01;61.80
6668;BME280;3370;47.712;9.082;2023-03-15T10:33:39;97236.69;;;5.51;66.14
6668;BME280;3370;47.712;9.082;2023-03-15T10:36:26;97223.63;;;5.64;63.72
6668;BME280;3370;47.712;9.082;2023-03-15T10:39:12;97223.94;;;5.50;62.44
6668;BME280;3370;47.712;9.082;2023-03-15T10:41:58;97225.38;;;5.62;60.44
6668;BME280;3370;47.712;9.082;2023-03-15T10:44:44;97225.25;;;5.29;59.53
6668;BME280;3370;47.712;9.082;2023-03-15T10:47:30;97220.94;;;5.31;62.39
6668;BME280;3370;47.712;9.082;2023-03-15T10:50:31;97221.25;;;5.93;63.18
6668;BME280;3370;47.712;9.082;2023-03-15T10:53:18;97218.44;;;6.06;59.92
6668;BME280;3370;47.712;9.082;2023-03-15T10:56:25;97220.25;;;6.02;58.69
6668;BME280;3370;47.712;9.082;2023-03-15T10:59:24;97218.47;;;6.04;59.20
6668;BME280;3370;47.712;9.082;2023-03-15T11:05:15;97205.66;;;6.42;59.21
6668;BME280;3370;47.712;9.082;2023-03-15T11:08:02;97204.44;;;6.22;56.96
6668;BME280;3370;47.712;9.082;2023-03-15T11:10:58;97204.44;;;6.55;55.35
6668;BME280;3370;47.712;9.082;2023-03-15T11:13:58;97209.97;;;7.02;50.26
6668;BME280;3370;47.712;9.082;2023-03-15T11:16:53;97205.41;;;7.12;52.07
6668;BME280;3370;47.712;9.082;2023-03-15T11:19:43;97210.31;;;8.03;51.91
6668;BME280;3370;47.712;9.082;2023-03-15T11:22:31;97195.13;;;7.43;51.23
6668;BME280;3370;47.712;9.082;2023-03-15T11:25:17;97195.75;;;7.78;50.96
6668;BME280;3370;47.712;9.082;2023-03-15T11:28:10;97196.09;;;8.21;50.63
6668;BME280;3370;47.712;9.082;2023-03-15T11:31:01;97202.84;;;7.97;48.43
6668;BME280;3370;47.712;9.082;2023-03-15T11:34:15;97187.06;;;8.36;47.81
6668;BME280;3370;47.712;9.082;2023-03-15T11:37:19;97191.69;;;8.51;50.40
6668;BME280;3370;47.712;9.082;2023-03-15T11:40:24;97185.13;;;9.15;48.36
6668;BME280;3370;47.712;9.082;2023-03-15T11:43:24;97185.94;;;8.44;45.29
6668;BME280;3370;47.712;9.082;2023-03-15T11:46:40;97190.41;;;8.38;46.65
6668;BME280;3370;47.712;9.082;2023-03-15T11:49:36;97185.13;;;8.68;46.65
6668;BME280;3370;47.712;9.082;2023-03-15T11:52:27;97171.63;;;9.33;45.57
6668;BME280;3370;47.712;9.082;2023-03-15T11:55:26;97163.81;;;9.36;44.68
6668;BME280;3370;47.712;9.082;2023-03-15T11:58:34;97162.78;;;9.40;45.23
6668;BME280;3370;47.712;9.082;2023-03-15T12:01:25;97161.34;;;9.33;45.20
6668;BME280;3370;47.712;9.082;2023-03-15T12:04:27;97161.25;;;9.36;41.38
6668;BME280;3370;47.712;9.082;2023-03-15T12:10:31;97154.91;;;10.30;41.30
6668;BME280;3370;47.712;9.082;2023-03-15T12:13:28;97153.31;;;10.48;40.22
6668;BME280;3370;47.712;9.082;2023-03-15T12:16:14;97143.81;;;11.82;39.25
6668;BME280;3370;47.712;9.082;2023-03-15T12:19:09;97154.16;;;10.28;40.99
6668;BME280;3370;47.712;9.082;2023-03-15T12:21:57;97146.78;;;11.00;40.60
6668;BME280;3370;47.712;9.082;2023-03-15T12:24:45;97147.47;;;10.45;38.99
6668;BME280;3370;47.712;9.082;2023-03-15T12:27:34;97149.31;;;10.62;38.43
6668;BME280;3370;47.712;9.082;2023-03-15T12:30:32;97137.94;;;11.24;37.52
6668;BME280;3370;47.712;9.082;2023-03-15T12:33:22;97135.25;;;13.80;37.30
6668;BME280;3370;47.712;9.082;2023-03-15T12:36:18;97139.31;;;12.73;36.16
6668;BME280;3370;47.712;9.082;2023-03-15T12:42:00;97140.78;;;11.74;39.78
6668;BME280;3370;47.712;9.082;2023-03-15T12:44:46;97137.81;;;11.08;38.02
6668;BME280;3370;47.712;9.082;2023-03-15T12:53:39;97140.09;;;10.37;40.25
6668;BME280;3370;47.712;9.082;2023-03-15T12:56:42;97140.28;;;9.25;40.74
6668;BME280;3370;47.712;9.082;2023-03-15T12:59:44;97145.31;;;8.57;41.68
6668;BME280;3370;47.712;9.082;2023-03-15T13:02:35;97139.75;;;9.61;39.74
6668;BME280;3370;47.712;9.082;2023-03-15T13:14:57;97136.03;;;9.90;35.38
6668;BME280;3370;47.712;9.082;2023-03-15T13:17:55;97131.41;;;11.17;35.12
6668;BME280;3370;47.712;9.082;2023-03-15T13:23:51;97130.94;;;10.09;33.92
6668;BME280;3370;47.712;9.082;2023-03-15T13:26:55;97135.63;;;9.57;34.54
6668;BME280;3370;47.712;9.082;2023-03-15T13:29:43;97130.66;;;9.74;36.44
6668;BME280;3370;47.712;9.082;2023-03-15T13:32:29;97131.00;;;10.28;36.66
6668;BME280;3370;47.712;9.082;2023-03-15T13:35:23;97125.97;;;9.64;37.19
6668;BME280;3370;47.712;9.082;2023-03-15T13:41:24;97145.75;;;7.95;42.23
6668;BME280;3370;47.712;9.082;2023-03-15T13:44:21;97133.00;;;8.69;38.15
6668;BME280;3370;47.712;9.082;2023-03-15T13:47:08;97129.22;;;8.54;40.59
6668;BME280;3370;47.712;9.082;2023-03-15T13:50:05;97132.47;;;8.09;38.42
6668;BME280;3370;47.712;9.082;2023-03-15T13:52:54;97126.22;;;8.41;39.82
6668;BME280;3370;47.712;9.082;2023-03-15T13:55:40;97128.19;;;8.34;38.06
6668;BME280;3370;47.712;9.082;2023-03-15T13:58:27;97133.66;;;7.98;41.02
6668;BME280;3370;47.712;9.082;2023-03-15T14:01:15;97126.91;;;7.96;42.94
6668;BME280;3370;47.712;9.082;2023-03-15T14:04:06;97138.84;;;7.97;44.59
6668;BME280;3370;47.712;9.082;2023-03-15T14:10:31;97125.78;;;8.30;43.64
6668;BME280;3370;47.712;9.082;2023-03-15T14:13:34;97131.91;;;8.25;39.74
6668;BME280;3370;47.712;9.082;2023-03-15T14:16:39;97120.25;;;8.42;39.09
6668;BME280;3370;47.712;9.082;2023-03-15T14:19:31;97121.19;;;8.14;38.58
6668;BME280;3370;47.712;9.082;2023-03-15T14:22:18;97126.31;;;8.14;38.80
6668;BME280;3370;47.712;9.082;2023-03-15T14:25:20;97123.16;;;8.06;40.33
6668;BME280;3370;47.712;9.082;2023-03-15T14:28:15;97115.94;;;8.17;37.52
6668;BME280;3370;47.712;9.082;2023-03-15T14:31:01;97114.66;;;8.05;38.74
6668;BME280;3370;47.712;9.082;2023-03-15T14:33:58;97114.78;;;8.01;38.41
6668;BME280;3370;47.712;9.082;2023-03-15T14:36:51;97116.44;;;7.77;41.05
6668;BME280;3370;47.712;9.082;2023-03-15T14:39:41;97126.03;;;7.70;42.01
6668;BME280;3370;47.712;9.082;2023-03-15T14:42:27;97127.47;;;7.52;41.82
6668;BME280;3370;47.712;9.082;2023-03-15T14:45:14;97123.47;;;7.70;42.03
6668;BME280;3370;47.712;9.082;2023-03-15T14:48:07;97126.03;;;7.70;45.66
6668;BME280;3370;47.712;9.082;2023-03-15T14:50:56;97127.44;;;7.80;46.38
6668;BME280;3370;47.712;9.082;2023-03-15T14:53:43;97126.91;;;7.71;43.26
6668;BME280;3370;47.712;9.082;2023-03-15T14:56:29;97123.41;;;7.73;46.08
6668;BME280;3370;47.712;9.082;2023-03-15T14:59:15;97120.19;;;7.66;49.22
6668;BME280;3370;47.712;9.082;2023-03-15T15:02:02;97121.78;;;7.96;46.63
6668;BME280;3370;47.712;9.082;2023-03-15T15:04:48;97120.03;;;7.98;43.84
6668;BME280;3370;47.712;9.082;2023-03-15T15:07:34;97122.22;;;7.83;43.12
6668;BME280;3370;47.712;9.082;2023-03-15T15:10:22;97113.94;;;7.75;42.85
6668;BME280;3370;47.712;9.082;2023-03-15T15:13:25;97116.84;;;7.64;45.44
6668;BME280;3370;47.712;9.082;2023-03-15T15:16:11;97119.56;;;7.60;46.08
6668;BME280;3370;47.712;9.082;2023-03-15T15:18:57;97118.78;;;7.58;46.52
6668;BME280;3370;47.712;9.082;2023-03-15T15:21:43;97118.91;;;7.53;47.51
6668;BME280;3370;47.712;9.082;2023-03-15T15:24:30;97114.53;;;7.57;45.09
6668;BME280;3370;47.712;9.082;2023-03-15T15:27:16;97119.28;;;7.41;48.19
6668;BME280;3370;47.712;9.082;2023-03-15T15:30:02;97114.47;;;7.32;46.04
6668;BME280;3370;47.712;9.082;2023-03-15T15:32:51;97122.16;;;7.58;44.03
6668;BME280;3370;47.712;9.082;2023-03-15T15:35:37;97123.16;;;7.54;44.59
6668;BME280;3370;47.712;9.082;2023-03-15T15:38:29;97119.56;;;7.60;46.43
6668;BME280;3370;47.712;9.082;2023-03-15T15:41:26;97125.75;;;7.79;43.98
6668;BME280;3370;47.712;9.082;2023-03-15T15:44:16;97124.59;;;7.88;42.23
6668;BME280;3370;47.712;9.082;2023-03-15T15:47:02;97123.22;;;7.53;42.93
6668;BME280;3370;47.712;9.082;2023-03-15T15:49:48;97133.72;;;7.43;44.28
6668;BME280;3370;47.712;9.082;2023-03-15T15:52:37;97137.91;;;7.18;42.11
6668;BME280;3370;47.712;9.082;2023-03-15T15:55:30;97128.53;;;7.18;42.37
6668;BME280;3370;47.712;9.082;2023-03-15T15:58:16;97133.41;;;7.26;44.08
6668;BME280;3370;47.712;9.082;2023-03-15T16:01:02;97136.91;;;7.23;45.58
6668;BME280;3370;47.712;9.082;2023-03-15T16:03:48;97142.06;;;7.22;45.04
6668;BME280;3370;47.712;9.082;2023-03-15T16:06:35;97148.78;;;7.24;43.89
6668;BME280;3370;47.712;9.082;2023-03-15T16:09:22;97148.13;;;7.18;45.02
6668;BME280;3370;47.712;9.082;2023-03-15T16:12:15;97148.94;;;7.20;46.08
6668;BME280;3370;47.712;9.082;2023-03-15T16:15:02;97152.00;;;7.31;47.16
6668;BME280;3370;47.712;9.082;2023-03-15T16:17:49;97159.19;;;7.46;47.26